Terminal Aerodrome Forecast
Issued by NWS

Home | Current Version | Previous Version | Text Only | Print | Product List | Glossary On
Versions: 1 2 3 4 5 6 7 8 9 10 11 12 13 14 15 16 17 18 19
000
FTUS43 KSGF 211000 AAB
TAFJLN
TAF AMD
KJLN 211024Z 2110/2206 VRB03KT 2SM BR SCT005
      TEMPO 2110/2114 1/2SM FG VV004
     FM211400 VRB03KT 4SM BR SCT004
     FM211500 VRB04KT P6SM SKC=

USA.gov is the U.S. government's official web portal to all federal, state and local government web resources and services.